createdAt,value
2023-04-16T00:01:21.474Z,94646
2023-04-16T00:04:46.784Z,94653
2023-04-16T00:08:11.921Z,94649
2023-04-16T00:11:37.156Z,94648
2023-04-16T00:15:02.474Z,94652
2023-04-16T00:18:27.628Z,94651
2023-04-16T00:21:52.833Z,94651
2023-04-16T00:25:18.062Z,94647
2023-04-16T00:28:43.321Z,94649
2023-04-16T00:32:08.561Z,94654
2023-04-16T00:35:33.768Z,94655
2023-04-16T00:38:58.996Z,94653
2023-04-16T00:42:24.211Z,94653
2023-04-16T00:45:49.464Z,94653
2023-04-16T00:49:14.708Z,94656
2023-04-16T00:52:39.901Z,94654
2023-04-16T00:56:05.139Z,94654
2023-04-16T00:59:30.349Z,94647
2023-04-16T01:02:55.666Z,94645
2023-04-16T01:06:20.841Z,94648
2023-04-16T01:09:46.074Z,94646
2023-04-16T01:13:11.324Z,94645
2023-04-16T01:16:36.551Z,94647
2023-04-16T01:20:01.809Z,94650
2023-04-16T01:23:27.087Z,94653
2023-04-16T01:26:52.278Z,94656
2023-04-16T01:30:17.522Z,94662
2023-04-16T01:33:42.765Z,94658
2023-04-16T01:37:07.985Z,94661
2023-04-16T01:40:33.355Z,94664
2023-04-16T01:43:58.430Z,94665
2023-04-16T01:47:23.663Z,94661
2023-04-16T01:50:48.868Z,94658
2023-04-16T01:54:14.117Z,94666
2023-04-16T01:57:39.397Z,94666
2023-04-16T02:01:04.674Z,94667
2023-04-16T02:04:29.874Z,94670
2023-04-16T02:07:55.124Z,94670
2023-04-16T02:11:20.347Z,94673
2023-04-16T02:14:45.636Z,94668
2023-04-16T02:18:10.904Z,94672
2023-04-16T02:21:36.103Z,94674
2023-04-16T02:25:01.379Z,94674
2023-04-16T02:28:26.592Z,94675
2023-04-16T02:31:51.888Z,94676
2023-04-16T02:35:17.108Z,94674
2023-04-16T02:38:42.364Z,94680
2023-04-16T02:42:07.574Z,94680
2023-04-16T02:45:32.828Z,94678
2023-04-16T02:48:58.064Z,94685
2023-04-16T02:52:23.290Z,94687
2023-04-16T02:55:48.652Z,94681
2023-04-16T02:59:13.927Z,94685
2023-04-16T03:02:39.257Z,94681
2023-04-16T03:06:04.460Z,94681
2023-04-16T03:09:29.682Z,94681
2023-04-16T03:12:54.884Z,94680
2023-04-16T03:16:20.521Z,94679
2023-04-16T03:19:45.724Z,94682
2023-04-16T03:23:11.119Z,94687
2023-04-16T03:26:36.220Z,94687
2023-04-16T03:30:01.442Z,94690
2023-04-16T03:33:26.672Z,94696
2023-04-16T03:36:51.921Z,94693
2023-04-16T03:40:17.177Z,94702
2023-04-16T03:43:42.397Z,94709
2023-04-16T03:47:07.646Z,94719
2023-04-16T03:50:32.859Z,94716
2023-04-16T03:53:58.083Z,94720
2023-04-16T03:57:23.331Z,94725
2023-04-16T04:00:48.789Z,94728
2023-04-16T04:04:14.180Z,94731
2023-04-16T04:07:39.251Z,94734
2023-04-16T04:11:04.459Z,94736
2023-04-16T04:14:29.717Z,94741
2023-04-16T04:17:54.944Z,94738
2023-04-16T04:21:20.133Z,94748
2023-04-16T04:24:45.334Z,94747
2023-04-16T04:28:10.538Z,94752
2023-04-16T04:31:35.806Z,94754
2023-04-16T04:35:00.973Z,94757
2023-04-16T04:38:26.201Z,94758
2023-04-16T04:41:51.421Z,94759
2023-04-16T04:45:16.636Z,94765
2023-04-16T04:48:41.878Z,94762
2023-04-16T04:52:07.051Z,94757
2023-04-16T04:55:32.254Z,94758
2023-04-16T04:58:57.471Z,94760
2023-04-16T05:02:22.718Z,94762
2023-04-16T05:05:47.916Z,94763
2023-04-16T05:09:13.083Z,94772
2023-04-16T05:12:38.305Z,94774
2023-04-16T05:16:03.544Z,94774
2023-04-16T05:19:28.776Z,94784
2023-04-16T05:22:54.006Z,94778
2023-04-16T05:26:19.192Z,94782
2023-04-16T05:29:44.395Z,94780
2023-04-16T05:33:09.600Z,94783
2023-04-16T05:36:34.836Z,94790
2023-04-16T05:40:00.061Z,94790
2023-04-16T05:43:25.238Z,94799
2023-04-16T05:46:50.448Z,94801
2023-04-16T05:50:15.656Z,94806
2023-04-16T05:53:40.887Z,94814
2023-04-16T05:57:06.104Z,94818
2023-04-16T06:00:31.294Z,94823
2023-04-16T06:03:56.541Z,94828
2023-04-16T06:07:21.707Z,94834
2023-04-16T06:10:46.937Z,94836
2023-04-16T06:14:12.158Z,94837
2023-04-16T06:17:37.373Z,94838
2023-04-16T06:21:02.578Z,94843
2023-04-16T06:24:27.798Z,94844
2023-04-16T06:27:52.998Z,94842
2023-04-16T06:31:18.241Z,94855
2023-04-16T06:34:43.433Z,94853
2023-04-16T06:38:08.644Z,94856
2023-04-16T06:41:33.851Z,94863
2023-04-16T06:44:59.088Z,94865
2023-04-16T06:48:24.310Z,94864
2023-04-16T06:51:49.511Z,94870
2023-04-16T06:55:14.720Z,94865
2023-04-16T06:58:39.927Z,94870
2023-04-16T07:02:05.213Z,94881
2023-04-16T07:05:30.375Z,94879
2023-04-16T07:08:55.535Z,94880
2023-04-16T07:12:22.453Z,94878
2023-04-16T07:15:45.922Z,94882
2023-04-16T07:19:11.290Z,94887
2023-04-16T07:22:36.363Z,94885
2023-04-16T07:26:01.561Z,94893
2023-04-16T07:29:26.754Z,94896
2023-04-16T07:32:52.002Z,94901
2023-04-16T07:36:17.174Z,94905
2023-04-16T07:39:42.417Z,94902
2023-04-16T07:43:07.603Z,94902
2023-04-16T07:46:43.477Z,94909
2023-04-16T07:49:58.025Z,94915
2023-04-16T07:53:23.187Z,94917
2023-04-16T07:56:48.410Z,94929
2023-04-16T08:00:13.582Z,94928
2023-04-16T08:03:38.914Z,94929
2023-04-16T08:07:03.998Z,94927
2023-04-16T08:10:29.188Z,94930
2023-04-16T08:13:54.437Z,94931
2023-04-16T08:17:19.589Z,94935
2023-04-16T08:20:44.803Z,94941
2023-04-16T08:24:09.994Z,94946
2023-04-16T08:27:35.172Z,94951
2023-04-16T08:31:00.465Z,94957
2023-04-16T08:34:25.619Z,94954
2023-04-16T08:37:50.789Z,94960
2023-04-16T08:41:16.000Z,94963
2023-04-16T08:44:41.216Z,94962
2023-04-16T08:48:06.473Z,94965
2023-04-16T08:51:31.639Z,94970
2023-04-16T08:54:57.225Z,94966
2023-04-16T08:58:22.041Z,94968
2023-04-16T09:01:47.269Z,94976
2023-04-16T09:05:12.535Z,94977
2023-04-16T09:08:37.756Z,94985
2023-04-16T09:12:02.971Z,94986
2023-04-16T09:15:28.205Z,94990
2023-04-16T09:18:53.423Z,94989
2023-04-16T09:22:18.661Z,94995
2023-04-16T09:25:43.856Z,95001
2023-04-16T09:29:09.243Z,95010
2023-04-16T09:32:34.390Z,95009
2023-04-16T09:35:59.645Z,95007
2023-04-16T09:39:24.943Z,95012
2023-04-16T09:42:50.181Z,95019
2023-04-16T09:46:15.438Z,95018
2023-04-16T09:49:40.712Z,95017
2023-04-16T09:53:06.007Z,95023
2023-04-16T09:56:31.322Z,95021
2023-04-16T09:59:56.606Z,95027
2023-04-16T10:03:21.932Z,95028
2023-04-16T10:06:47.171Z,95034
2023-04-16T10:10:12.432Z,95038
2023-04-16T10:13:37.665Z,95039
2023-04-16T10:17:02.912Z,95040
2023-04-16T10:20:28.075Z,95046
2023-04-16T10:23:53.314Z,95037
2023-04-16T10:27:18.511Z,95044
2023-04-16T10:30:43.765Z,95042
2023-04-16T10:34:08.926Z,95047
2023-04-16T10:37:34.242Z,95054
2023-04-16T10:40:59.580Z,95053
2023-04-16T10:44:24.910Z,95051
2023-04-16T10:47:50.319Z,95047
2023-04-16T10:51:15.470Z,95045
2023-04-16T10:54:40.691Z,95052
2023-04-16T10:58:05.895Z,95055
2023-04-16T11:01:31.172Z,95056
2023-04-16T11:04:56.423Z,95056
2023-04-16T11:08:21.596Z,95061
2023-04-16T11:11:46.795Z,95065
2023-04-16T11:15:12.025Z,95066
2023-04-16T11:18:37.270Z,95072
2023-04-16T11:22:02.547Z,95075
2023-04-16T11:25:27.794Z,95077
2023-04-16T11:28:52.959Z,95077
2023-04-16T11:32:18.189Z,95080
2023-04-16T11:35:43.417Z,95085
2023-04-16T11:39:08.845Z,95087
2023-04-16T11:42:33.924Z,95089
2023-04-16T11:45:59.102Z,95095
2023-04-16T11:49:24.303Z,95098
2023-04-16T11:52:49.532Z,95099
2023-04-16T11:56:14.772Z,95102
2023-04-16T12:00:01.276Z,95108
2023-04-16T12:03:05.299Z,95105
2023-04-16T12:06:30.362Z,95106
2023-04-16T12:09:55.597Z,95110
2023-04-16T12:13:20.819Z,95105
2023-04-16T12:16:46.087Z,95110
2023-04-16T12:20:11.340Z,95112
2023-04-16T12:23:36.517Z,95113
2023-04-16T12:27:01.750Z,95113
2023-04-16T12:30:26.988Z,95117
2023-04-16T12:33:52.166Z,95112
2023-04-16T12:37:17.362Z,95121
2023-04-16T12:40:42.572Z,95120
2023-04-16T12:44:07.781Z,95126
2023-04-16T12:47:33.118Z,95129
2023-04-16T12:50:58.213Z,95128
2023-04-16T12:54:23.410Z,95127
2023-04-16T12:57:48.746Z,95129
2023-04-16T13:01:13.968Z,95130
2023-04-16T13:04:39.228Z,95131
2023-04-16T13:08:04.383Z,95137
2023-04-16T13:11:29.583Z,95136
2023-04-16T13:14:54.786Z,95134
2023-04-16T13:18:20.112Z,95132
2023-04-16T13:21:45.394Z,95128
2023-04-16T13:25:10.599Z,95131
2023-04-16T13:28:35.831Z,95131
2023-04-16T13:32:01.103Z,95133
2023-04-16T13:35:26.309Z,95133
2023-04-16T13:38:51.766Z,95136
2023-04-16T13:42:16.941Z,95139
2023-04-16T13:45:42.163Z,95140
2023-04-16T13:49:07.441Z,95139
2023-04-16T13:52:32.589Z,95140
2023-04-16T13:55:57.955Z,95137
2023-04-16T13:59:23.153Z,95145
2023-04-16T14:02:48.862Z,95145
2023-04-16T14:06:14.768Z,95144
2023-04-16T14:09:40.249Z,95146
2023-04-16T14:13:05.309Z,95148
2023-04-16T14:16:30.543Z,95149
2023-04-16T14:19:55.746Z,95151
2023-04-16T14:23:20.956Z,95155
2023-04-16T14:26:46.171Z,95154
2023-04-16T14:30:11.416Z,95154
2023-04-16T14:33:36.604Z,95158
2023-04-16T14:37:01.814Z,95157
2023-04-16T14:40:27.014Z,95159
2023-04-16T14:43:52.229Z,95159
2023-04-16T14:47:17.561Z,95158
2023-04-16T14:50:42.754Z,95164
2023-04-16T14:54:07.933Z,95160
2023-04-16T14:57:33.138Z,95165
2023-04-16T15:00:58.419Z,95161
2023-04-16T15:04:23.759Z,95171
2023-04-16T15:41:41.935Z,95185
2023-04-16T15:45:03.091Z,95191
2023-04-16T15:48:28.311Z,95198
2023-04-16T15:51:53.507Z,95193
2023-04-16T15:55:18.736Z,95201
2023-04-16T15:58:44.000Z,95201
2023-04-16T16:02:10.760Z,95203
2023-04-16T16:05:36.370Z,95206
2023-04-16T16:09:01.617Z,95206
2023-04-16T16:12:26.838Z,95212
2023-04-16T16:15:52.131Z,95210
2023-04-16T16:19:17.336Z,95211
2023-04-16T16:22:42.529Z,95224
2023-04-16T16:26:07.766Z,95219
2023-04-16T16:29:55.399Z,95219
2023-04-16T16:33:20.639Z,95224
2023-04-16T16:36:45.842Z,95229
2023-04-16T16:40:11.037Z,95229
2023-04-16T16:43:36.247Z,95233
2023-04-16T16:47:01.587Z,95233
2023-04-16T16:50:26.732Z,95238
2023-04-16T16:53:51.941Z,95236
2023-04-16T16:57:17.141Z,95238
2023-04-16T17:00:42.389Z,95238
2023-04-16T17:04:07.688Z,95236
2023-04-16T17:07:32.829Z,95241
2023-04-16T17:10:58.040Z,95243
2023-04-16T17:14:23.245Z,95246
2023-04-16T17:17:48.545Z,95243
2023-04-16T17:21:15.888Z,95244
2023-04-16T17:24:38.948Z,95256
2023-04-16T17:28:04.129Z,95251
2023-04-16T17:31:29.363Z,95255
2023-04-16T17:34:54.637Z,95260
2023-04-16T17:38:20.040Z,95262
2023-04-16T17:41:45.429Z,95264
2023-04-16T17:45:10.880Z,95265
2023-04-16T17:48:36.351Z,95264
2023-04-16T17:52:01.719Z,95273
2023-04-16T17:55:27.044Z,95271
2023-04-16T17:58:52.520Z,95276
2023-04-16T18:02:17.874Z,95281
2023-04-16T18:05:43.209Z,95285
2023-04-16T18:09:08.577Z,95284
2023-04-16T18:12:33.956Z,95288
2023-04-16T18:15:59.448Z,95294
2023-04-16T18:19:24.715Z,95292
2023-04-16T18:22:50.094Z,95294
2023-04-16T18:26:18.322Z,95292
2023-04-16T18:29:40.866Z,95299
2023-04-16T18:33:34.112Z,95303
2023-04-16T18:36:31.478Z,95304
2023-04-16T18:39:58.100Z,95309
2023-04-16T18:43:22.183Z,95308
2023-04-16T18:46:47.525Z,95311
2023-04-16T18:50:12.846Z,95322
2023-04-16T18:53:38.229Z,95323
2023-04-16T18:57:03.543Z,95323
2023-04-16T19:00:28.891Z,95325
2023-04-16T19:03:54.279Z,95328
2023-04-16T19:07:19.623Z,95332
2023-04-16T19:10:44.962Z,95328
2023-04-16T19:14:10.334Z,95330
2023-04-16T19:17:35.685Z,95333
2023-04-16T19:21:00.935Z,95328
2023-04-16T19:24:26.216Z,95325
2023-04-16T19:27:51.432Z,95338
2023-04-16T19:31:16.661Z,95336
2023-04-16T19:34:41.876Z,95342
2023-04-16T19:38:08.416Z,95339
2023-04-16T19:41:32.319Z,95342
2023-04-16T19:44:57.496Z,95344
2023-04-16T19:48:22.704Z,95342
2023-04-16T19:51:47.920Z,95345
2023-04-16T19:55:13.170Z,95345
2023-04-16T19:58:38.433Z,95344
2023-04-16T20:02:03.715Z,95349
2023-04-16T20:05:28.838Z,95350
2023-04-16T20:08:54.063Z,95353
2023-04-16T20:12:19.296Z,95354
2023-04-16T20:15:44.533Z,95357
2023-04-16T20:19:09.704Z,95353
2023-04-16T20:22:35.267Z,95353
2023-04-16T20:26:00.488Z,95349
2023-04-16T20:29:25.698Z,95350
2023-04-16T20:32:50.918Z,95354
2023-04-16T20:36:16.109Z,95351
2023-04-16T20:39:41.344Z,95349
2023-04-16T20:43:06.560Z,95352
2023-04-16T20:46:31.817Z,95351
2023-04-16T20:49:57.044Z,95339
2023-04-16T20:53:22.271Z,95343
2023-04-16T20:56:47.486Z,95349
2023-04-16T21:00:12.719Z,95347
2023-04-16T21:03:38.115Z,95350
2023-04-16T21:07:03.184Z,95347
2023-04-16T21:10:28.361Z,95346
2023-04-16T21:13:53.559Z,95343
2023-04-16T21:17:18.778Z,95349
2023-04-16T21:20:43.994Z,95346
2023-04-16T21:24:09.224Z,95347
2023-04-16T21:27:34.411Z,95352
2023-04-16T21:30:59.699Z,95352
2023-04-16T21:34:24.829Z,95354
2023-04-16T21:37:50.046Z,95349
2023-04-16T21:41:15.267Z,95349
2023-04-16T21:44:40.429Z,95350
2023-04-16T21:48:05.657Z,95346
2023-04-16T21:51:30.862Z,95345
2023-04-16T21:54:56.070Z,95344
2023-04-16T21:58:21.312Z,95345
2023-04-16T22:01:46.495Z,95351
2023-04-16T22:05:11.742Z,95345
2023-04-16T22:08:36.915Z,95348
2023-04-16T22:12:02.123Z,95346
2023-04-16T22:15:27.356Z,95346
2023-04-16T22:18:52.517Z,95341
2023-04-16T22:22:18.273Z,95342
2023-04-16T22:25:42.914Z,95344
2023-04-16T22:29:08.137Z,95344
2023-04-16T22:32:33.398Z,95344
2023-04-16T22:35:58.554Z,95348
2023-04-16T22:39:23.758Z,95346
2023-04-16T22:42:48.980Z,95347
2023-04-16T22:46:14.239Z,95345
2023-04-16T22:49:39.465Z,95348
2023-04-16T22:53:04.653Z,95350
2023-04-16T22:56:29.835Z,95339
2023-04-16T22:59:55.061Z,95342
2023-04-16T23:03:20.328Z,95340
2023-04-16T23:06:45.485Z,95339
2023-04-16T23:10:10.652Z,95341
2023-04-16T23:13:35.850Z,95340
2023-04-16T23:17:01.056Z,95343
2023-04-16T23:20:26.282Z,95341
2023-04-16T23:23:51.513Z,95340
2023-04-16T23:27:16.665Z,95344
2023-04-16T23:30:41.878Z,95342
2023-04-16T23:34:07.095Z,95349
2023-04-16T23:37:32.300Z,95341
2023-04-16T23:40:57.634Z,95341
2023-04-16T23:44:22.684Z,95341
2023-04-16T23:47:47.917Z,95343
2023-04-16T23:51:13.131Z,95339
2023-04-16T23:54:38.338Z,95341
2023-04-16T23:58:03.581Z,95341
